Terminal Aerodrome Forecast
Issued by NWS Bismarck, ND

Home | Current Version | Previous Version | Graphics & Text | Print | Product List | Glossary On
Versions: 1 2 3 4 5 6 7 8 9 10 11 12 13 14 15 16 17 18
000
FTUS43 KBIS 260700 AAA
TAFISN
TAF AMD
KISN 260733Z 2608/2706 VRB02KT P6SM VCSH SCT070 OVC110
      TEMPO 2608/2612 4SM -SN BKN040 OVC080
     FM261300 10005KT P6SM SCT018 BKN035
     FM261600 11006KT P6SM SCT045 BKN120
     FM270200 13008KT P6SM VCSH BKN080 OVC100=

USA.gov is the U.S. government's official web portal to all federal, state and local government web resources and services.